Time;durP1;ratioP1;P1;durP2;ratioP2;P2;SDS_P1;SDS_P2;PMS_P1;PMS_P2;Temp;Humidity;BMP_temperature;BMP_pressure;BME280_temperature;BME280_humidity;BME280_pressure;Samples;Min_cycle;Max_cycle;Signal;HPM_P1;HPM_P2
2020/12/19 03:45:31;;;;;;;17.23;7.63;;;5.40;87.40;;;;;;5860217;23;20273;-75
2020/12/19 03:47:57;;;;;;;17.50;7.65;;;5.50;87.00;;;;;;4952651;28;20214;-76
2020/12/19 03:50:22;;;;;;;16.45;6.95;;;5.40;87.00;;;;;;4928535;29;20019;-77
2020/12/19 03:52:48;;;;;;;15.15;7.60;;;5.40;87.00;;;;;;4929145;29;20026;-78
2020/12/19 03:55:14;;;;;;;14.02;6.70;;;5.40;87.10;;;;;;4937663;29;20015;-77
2020/12/19 03:57:40;;;;;;;16.58;7.40;;;5.50;87.30;;;;;;4929071;29;20195;-77
2020/12/19 04:00:08;;;;;;;15.32;7.25;;;5.40;87.30;;;;;;4944941;29;20030;-77
2020/12/19 04:02:34;;;;;;;17.20;7.85;;;5.50;87.30;;;;;;4946016;29;20015;-75
2020/12/19 04:04:59;;;;;;;19.15;7.97;;;5.60;86.80;;;;;;4945885;29;20012;-77
2020/12/19 04:07:25;;;;;;;21.83;7.30;;;5.60;86.60;;;;;;4945990;29;20303;-75
2020/12/19 04:09:51;;;;;;;14.70;6.93;;;5.70;86.70;;;;;;4945964;29;20369;-78
2020/12/19 04:12:17;;;;;;;19.52;7.78;;;5.60;85.90;;;;;;4944729;29;20147;-77
2020/12/19 04:14:42;;;;;;;13.93;6.63;;;5.60;86.60;;;;;;4944487;29;20055;-77
2020/12/19 04:17:11;;;;;;;14.35;6.95;;;5.50;86.90;;;;;;4957755;29;20023;-75
2020/12/19 04:19:38;;;;;;;15.50;7.05;;;5.60;86.90;;;;;;4964925;29;20023;-77
2020/12/19 04:22:04;;;;;;;17.20;7.75;;;5.40;87.10;;;;;;4965006;29;20090;-77
2020/12/19 04:24:31;;;;;;;16.80;7.83;;;5.40;87.50;;;;;;4964760;29;20034;-75
2020/12/19 04:26:57;;;;;;;15.25;8.02;;;5.20;88.10;;;;;;4964815;29;20095;-75
2020/12/19 04:29:22;;;;;;;16.60;8.05;;;5.40;87.80;;;;;;4947628;29;20306;-78
2020/12/19 04:31:48;;;;;;;16.15;8.05;;;5.40;87.40;;;;;;4964589;29;20026;-78
2020/12/19 04:34:14;;;;;;;14.05;7.82;;;5.40;87.00;;;;;;4964845;28;20027;-77
2020/12/19 04:36:39;;;;;;;17.75;8.32;;;5.40;87.10;;;;;;4968131;29;20027;-77
2020/12/19 04:39:05;;;;;;;18.40;8.60;;;5.60;86.90;;;;;;4951150;29;20026;-77
2020/12/19 04:41:33;;;;;;;16.00;9.00;;;5.70;86.30;;;;;;4951538;29;20024;-78
2020/12/19 04:44:00;;;;;;;18.38;9.13;;;5.60;86.30;;;;;;4951038;29;20016;-75
2020/12/19 04:46:28;;;;;;;21.73;9.82;;;5.50;86.20;;;;;;4943770;29;20180;-75
2020/12/19 04:48:56;;;;;;;22.05;9.02;;;5.40;86.50;;;;;;4932139;29;20062;-75
2020/12/19 04:51:22;;;;;;;24.55;10.40;;;5.50;87.10;;;;;;4948998;29;20050;-75
2020/12/19 04:53:47;;;;;;;22.80;9.98;;;5.50;86.80;;;;;;4931631;29;20028;-76
2020/12/19 04:56:14;;;;;;;26.38;11.10;;;5.50;87.20;;;;;;4948710;29;20031;-75
2020/12/19 04:58:40;;;;;;;23.83;9.98;;;5.50;87.40;;;;;;4948640;29;20207;-76
2020/12/19 05:01:06;;;;;;;25.27;10.27;;;5.60;87.30;;;;;;4949103;29;20039;-75
2020/12/19 05:03:32;;;;;;;18.40;8.10;;;5.70;86.90;;;;;;4948622;29;20023;-75
2020/12/19 05:05:59;;;;;;;19.80;9.93;;;5.60;86.60;;;;;;4931696;29;20019;-76
2020/12/19 05:08:25;;;;;;;17.02;8.95;;;5.70;86.00;;;;;;4931597;29;20292;-76
2020/12/19 05:10:51;;;;;;;19.58;8.88;;;5.60;86.90;;;;;;4948794;29;20015;-77
2020/12/19 05:13:19;;;;;;;18.10;8.45;;;5.60;86.70;;;;;;4931422;29;20039;-77
2020/12/19 05:15:45;;;;;;;17.15;8.50;;;5.70;86.40;;;;;;4948265;29;20023;-75
2020/12/19 05:18:11;;;;;;;18.10;8.73;;;5.60;86.80;;;;;;4931394;29;20098;-75
2020/12/19 05:20:37;;;;;;;15.40;8.32;;;5.50;86.90;;;;;;4948562;29;20120;-76
2020/12/19 05:23:07;;;;;;;18.15;8.48;;;5.60;87.10;;;;;;4948288;29;20016;-76
2020/12/19 05:25:38;;;;;;;22.45;9.15;;;5.60;87.20;;;;;;4948245;29;20428;-75
2020/12/19 05:28:05;;;;;;;16.88;8.25;;;5.70;86.80;;;;;;4931155;29;20117;-75
2020/12/19 05:30:31;;;;;;;22.10;9.75;;;5.70;86.60;;;;;;4931099;29;20086;-76
2020/12/19 05:32:56;;;;;;;19.33;10.55;;;5.70;86.50;;;;;;4947939;29;20031;-76
2020/12/19 05:35:23;;;;;;;22.15;11.38;;;5.70;87.00;;;;;;4948042;29;20291;-76
2020/12/19 05:38:05;;;;;;;25.33;12.38;;;5.60;86.80;;;;;;4948006;29;20203;-78
2020/12/19 05:40:33;;;;;;;23.23;11.77;;;5.50;87.20;;;;;;4947873;29;20199;-75
2020/12/19 05:43:00;;;;;;;29.88;13.77;;;5.20;88.60;;;;;;4947892;29;20128;-75
2020/12/19 05:45:27;;;;;;;28.85;13.50;;;5.30;88.80;;;;;;4930704;29;20015;-75
2020/12/19 05:47:54;;;;;;;29.90;12.68;;;5.40;88.70;;;;;;4946450;29;20039;-75
2020/12/19 05:50:21;;;;;;;29.73;13.15;;;5.40;88.00;;;;;;4947771;29;20038;-76
2020/12/19 05:52:47;;;;;;;25.58;12.50;;;5.50;87.80;;;;;;4930598;29;20067;-76
2020/12/19 05:55:16;;;;;;;24.10;12.40;;;5.60;87.50;;;;;;4947527;29;20311;-75
2020/12/19 05:57:43;;;;;;;28.65;13.23;;;5.60;87.50;;;;;;4947423;29;20122;-75
2020/12/19 06:00:15;;;;;;;24.92;13.57;;;5.40;87.90;;;;;;4930526;29;20094;-76
2020/12/19 06:02:42;;;;;;;33.35;13.93;;;5.50;88.00;;;;;;4947400;29;20032;-76
2020/12/19 06:05:13;;;;;;;30.13;13.45;;;5.60;87.40;;;;;;4947522;29;20027;-77
2020/12/19 06:07:43;;;;;;;23.20;12.50;;;5.40;88.20;;;;;;4947573;29;20027;-76
2020/12/19 06:10:12;;;;;;;23.35;12.98;;;5.50;88.20;;;;;;4934347;29;20298;-76
2020/12/19 06:13:10;;;;;;;25.52;12.45;;;5.60;87.80;;;;;;4966226;29;20054;-75
2020/12/19 06:16:04;;;;;;;24.20;12.40;;;5.80;87.30;;;;;;4948907;29;20098;-75
2020/12/19 06:18:49;;;;;;;23.15;10.90;;;5.80;86.90;;;;;;4929933;29;20026;-76
2020/12/19 06:21:15;;;;;;;21.60;10.90;;;5.80;86.70;;;;;;4946857;29;20024;-75
2020/12/19 06:23:42;;;;;;;20.65;10.80;;;5.80;87.10;;;;;;4946497;29;20028;-77
2020/12/19 06:26:09;;;;;;;20.48;10.93;;;5.80;87.00;;;;;;4946825;29;20262;-76
2020/12/19 06:28:43;;;;;;;20.90;10.52;;;5.80;86.90;;;;;;4947118;29;20027;-76
2020/12/19 06:31:14;;;;;;;18.98;9.80;;;6.00;86.50;;;;;;4930164;29;20015;-76
2020/12/19 06:33:41;;;;;;;19.17;10.20;;;6.00;85.80;;;;;;4946614;29;20097;-75
2020/12/19 06:36:22;;;;;;;20.52;9.90;;;6.00;86.20;;;;;;4946935;29;20085;-76
2020/12/19 06:38:56;;;;;;;21.52;10.43;;;5.90;86.10;;;;;;4946593;29;20087;-75
2020/12/19 06:41:41;;;;;;;18.77;9.90;;;6.00;86.50;;;;;;4946792;29;20016;-75
2020/12/19 06:44:13;;;;;;;16.50;9.35;;;5.90;86.30;;;;;;4946577;29;20079;-76
2020/12/19 06:46:39;;;;;;;18.42;9.77;;;6.10;86.00;;;;;;4945818;29;20265;-75
2020/12/19 06:49:26;;;;;;;18.35;9.32;;;6.00;85.80;;;;;;4945530;29;20023;-75
2020/12/19 06:52:02;;;;;;;;;;;5.80;86.40;;;;;;4933132;29;20062;-75
2020/12/19 06:54:32;;;;;;;19.65;9.40;;;5.70;87.10;;;;;;4964217;29;19910;-76
2020/12/19 06:56:59;;;;;;;18.92;9.65;;;5.60;87.50;;;;;;4948674;29;20054;-76
2020/12/19 06:59:26;;;;;;;18.25;9.30;;;5.70;87.60;;;;;;4965153;29;20027;-76
2020/12/19 07:01:52;;;;;;;;;;;5.80;87.40;;;;;;4934655;29;20355;-77
2020/12/19 07:04:47;;;;;;;19.73;10.77;;;5.90;87.20;;;;;;4946321;29;19902;-76
2020/12/19 07:07:27;;;;;;;18.13;9.60;;;5.90;86.40;;;;;;4850739;29;20078;-75
2020/12/19 07:09:58;;;;;;;18.25;9.77;;;5.80;86.90;;;;;;4852573;29;20057;-75
2020/12/19 07:12:35;;;;;;;19.10;9.63;;;5.90;86.90;;;;;;4869264;29;20081;-75
2020/12/19 07:15:01;;;;;;;18.90;10.27;;;5.70;87.10;;;;;;4853535;29;20044;-75
2020/12/19 07:17:27;;;;;;;17.92;9.63;;;5.80;87.10;;;;;;4868858;29;20343;-75
2020/12/19 07:20:01;;;;;;;21.67;10.85;;;5.90;87.00;;;;;;4861839;29;20097;-75
2020/12/19 07:22:28;;;;;;;18.83;10.27;;;5.80;86.80;;;;;;4858774;29;20028;-75
2020/12/19 07:24:54;;;;;;;;;;;5.80;87.00;;;;;;4844450;29;20089;-75
2020/12/19 07:27:23;;;;;;;20.60;9.35;;;5.80;87.00;;;;;;4860316;29;19904;-75
2020/12/19 07:29:49;;;;;;;14.48;8.63;;;5.80;86.60;;;;;;4845748;29;20040;-75
2020/12/19 07:32:16;;;;;;;14.40;8.43;;;5.90;86.40;;;;;;4856070;29;20022;-75
2020/12/19 07:34:42;;;;;;;19.92;9.27;;;5.80;86.70;;;;;;4858240;29;20030;-76
2020/12/19 07:37:09;;;;;;;15.30;8.73;;;5.80;86.90;;;;;;4860225;29;20233;-77
2020/12/19 07:39:35;;;;;;;14.27;9.18;;;5.90;86.90;;;;;;4859485;29;20017;-75
2020/12/19 07:42:01;;;;;;;16.88;8.52;;;5.80;86.40;;;;;;4856071;29;20247;-77
2020/12/19 07:44:27;;;;;;;15.27;8.98;;;5.80;86.70;;;;;;4940922;29;20211;-75
2020/12/19 07:46:55;;;;;;;20.73;8.93;;;5.80;86.70;;;;;;4938710;29;20364;-77
2020/12/19 07:49:29;;;;;;;14.90;9.30;;;5.80;86.60;;;;;;4948976;29;20282;-75
2020/12/19 07:52:09;;;;;;;15.45;8.20;;;5.60;87.40;;;;;;4940763;29;20015;-77
2020/12/19 07:54:35;;;;;;;14.93;8.25;;;5.60;87.50;;;;;;4938659;29;20063;-76
2020/12/19 07:57:02;;;;;;;19.65;9.48;;;5.50;87.30;;;;;;4957542;29;20027;-77
2020/12/19 07:59:28;;;;;;;18.88;9.35;;;5.60;87.90;;;;;;4963709;29;20027;-75
2020/12/19 08:01:55;;;;;;;20.58;10.00;;;5.70;87.60;;;;;;4949300;29;20031;-77
2020/12/19 08:04:20;;;;;;;17.92;8.90;;;5.70;87.30;;;;;;4945487;29;20094;-76
2020/12/19 08:06:47;;;;;;;16.60;8.65;;;5.70;87.00;;;;;;4928590;29;20334;-75
2020/12/19 08:09:23;;;;;;;14.38;7.43;;;5.70;87.40;;;;;;4928537;29;20079;-74
2020/12/19 08:11:50;;;;;;;14.00;7.95;;;5.60;87.40;;;;;;4966354;29;20029;-74
2020/12/19 08:14:20;;;;;;;14.40;8.07;;;5.70;87.20;;;;;;4951128;29;20023;-75
2020/12/19 08:16:47;;;;;;;12.45;7.32;;;5.60;87.70;;;;;;4958956;29;20303;-77
2020/12/19 08:19:19;;;;;;;12.63;7.37;;;5.40;88.50;;;;;;4948959;29;20019;-74
2020/12/19 08:21:47;;;;;;;17.05;8.15;;;5.60;88.20;;;;;;4949034;29;20331;-74
2020/12/19 08:24:13;;;;;;;14.05;7.72;;;5.70;87.60;;;;;;4949012;29;20022;-74
2020/12/19 08:26:39;;;;;;;13.63;7.13;;;5.70;87.50;;;;;;4948745;29;20226;-74
2020/12/19 08:29:06;;;;;;;18.92;7.57;;;5.70;87.40;;;;;;4932043;29;20024;-74
2020/12/19 08:31:36;;;;;;;19.25;7.82;;;5.80;87.10;;;;;;4948404;29;20055;-74
2020/12/19 08:34:04;;;;;;;26.48;12.10;;;5.80;87.10;;;;;;4931458;29;20023;-74
2020/12/19 08:36:31;;;;;;;14.40;8.30;;;5.90;86.80;;;;;;4936444;29;20015;-74
2020/12/19 08:39:14;;;;;;;15.82;8.43;;;5.90;86.80;;;;;;4958180;29;20027;-75
2020/12/19 08:41:39;;;;;;;20.73;9.50;;;5.80;87.40;;;;;;4942685;29;20373;-74
2020/12/19 08:44:05;;;;;;;18.95;8.45;;;5.90;87.10;;;;;;4967853;29;20015;-77
2020/12/19 08:46:31;;;;;;;18.08;9.32;;;5.80;87.40;;;;;;4960267;29;20040;-77
2020/12/19 08:49:02;;;;;;;19.38;7.75;;;5.80;87.80;;;;;;4948735;29;20063;-77
2020/12/19 08:51:28;;;;;;;12.63;7.35;;;5.70;88.00;;;;;;4948329;29;20016;-75
2020/12/19 08:54:08;;;;;;;17.00;8.63;;;5.50;88.00;;;;;;4954920;29;20078;-74
2020/12/19 08:56:35;;;;;;;33.33;23.33;;;5.50;88.90;;;;;;4967652;29;20039;-74
2020/12/19 08:59:01;;;;;;;21.80;9.68;;;5.50;88.80;;;;;;4967328;29;20027;-75
2020/12/19 09:01:30;;;;;;;21.15;10.25;;;5.60;88.60;;;;;;4935774;29;20024;-75
2020/12/19 09:04:08;;;;;;;21.45;9.27;;;5.60;88.60;;;;;;4957137;29;20086;-74
2020/12/19 09:06:48;;;;;;;15.52;8.68;;;5.80;89.00;;;;;;4940909;29;20023;-74
2020/12/19 09:09:19;;;;;;;19.73;12.20;;;5.80;88.10;;;;;;4953948;29;20015;-74
2020/12/19 09:11:45;;;;;;;19.52;8.32;;;5.80;87.70;;;;;;4940489;29;20103;-74
2020/12/19 09:14:12;;;;;;;20.52;8.77;;;6.00;87.60;;;;;;4961939;29;20027;-74
2020/12/19 09:16:53;;;;;;;19.48;10.75;;;6.00;87.00;;;;;;4961005;29;20015;-75
2020/12/19 09:19:19;;;;;;;18.65;8.63;;;5.80;87.10;;;;;;4960912;29;20019;-75
2020/12/19 09:21:58;;;;;;;15.68;8.52;;;5.80;87.50;;;;;;4940020;29;20019;-75
2020/12/19 09:24:24;;;;;;;21.38;9.93;;;5.80;87.60;;;;;;4956691;29;20016;-74
2020/12/19 09:26:50;;;;;;;17.65;10.18;;;5.90;87.50;;;;;;4934630;29;20054;-75
2020/12/19 09:29:16;;;;;;;18.30;8.60;;;5.90;87.20;;;;;;4936064;29;20031;-75
2020/12/19 09:31:42;;;;;;;15.43;7.53;;;5.90;87.30;;;;;;4949837;29;20024;-77
2020/12/19 09:34:08;;;;;;;14.85;8.57;;;5.90;87.50;;;;;;4947948;29;20314;-75
2020/12/19 09:36:34;;;;;;;18.17;8.77;;;5.60;88.10;;;;;;4941640;29;20043;-75
2020/12/19 09:38:59;;;;;;;18.10;8.98;;;5.60;88.70;;;;;;4933629;29;20115;-77
2020/12/19 09:41:25;;;;;;;30.60;20.85;;;5.70;88.50;;;;;;4942131;29;20219;-77
2020/12/19 09:43:51;;;;;;;17.20;8.55;;;5.70;87.90;;;;;;4943356;29;20016;-75
2020/12/19 09:46:16;;;;;;;14.93;7.25;;;5.80;87.90;;;;;;4952360;29;20055;-75
2020/12/19 09:48:42;;;;;;;15.38;8.65;;;5.70;87.60;;;;;;4949811;29;20032;-74
2020/12/19 09:51:08;;;;;;;19.85;10.52;;;5.70;87.80;;;;;;4930791;29;20322;-75
2020/12/19 09:53:37;;;;;;;15.50;7.95;;;5.80;88.00;;;;;;4946874;29;20023;-75
2020/12/19 09:56:03;;;;;;;17.17;8.45;;;5.60;88.00;;;;;;4930240;29;20326;-75
2020/12/19 09:58:29;;;;;;;17.93;9.63;;;5.90;87.80;;;;;;4930369;29;20030;-76
2020/12/19 10:00:56;;;;;;;24.73;12.32;;;6.00;87.30;;;;;;4961400;29;20394;-75
2020/12/19 10:03:21;;;;;;;16.42;8.02;;;6.00;87.30;;;;;;4950146;29;20015;-76
2020/12/19 10:05:47;;;;;;;20.27;11.55;;;6.10;86.70;;;;;;4947493;29;20040;-76
2020/12/19 10:08:14;;;;;;;19.15;8.45;;;6.10;86.70;;;;;;4930127;29;20366;-75
2020/12/19 10:10:46;;;;;;;15.00;7.75;;;6.00;86.50;;;;;;4955097;29;20094;-75
2020/12/19 10:13:13;;;;;;;17.63;8.90;;;6.00;86.50;;;;;;4966716;29;20043;-75
2020/12/19 10:15:40;;;;;;;16.60;8.95;;;6.00;86.80;;;;;;4948631;29;20031;-75
2020/12/19 10:18:06;;;;;;;18.55;9.98;;;6.00;86.80;;;;;;4946996;29;20043;-76
2020/12/19 10:20:32;;;;;;;15.93;7.95;;;5.90;86.80;;;;;;4947058;29;20211;-76
2020/12/19 10:22:58;;;;;;;17.90;9.98;;;5.90;86.60;;;;;;4947101;29;20039;-75
2020/12/19 10:25:24;;;;;;;20.92;9.68;;;5.90;87.30;;;;;;4929976;29;20087;-76
2020/12/19 10:27:49;;;;;;;19.23;9.38;;;6.00;87.00;;;;;;4946791;29;20060;-75
2020/12/19 10:30:15;;;;;;;15.27;8.70;;;6.10;86.50;;;;;;4929830;29;20055;-75
2020/12/19 10:32:40;;;;;;;16.27;8.82;;;6.00;86.70;;;;;;4946021;29;20023;-75
2020/12/19 10:35:06;;;;;;;15.13;8.15;;;5.90;86.80;;;;;;4946739;29;20027;-76
2020/12/19 10:37:35;;;;;;;20.05;8.98;;;5.80;87.20;;;;;;4929421;29;20019;-75
2020/12/19 10:40:03;;;;;;;21.55;10.07;;;5.80;87.50;;;;;;4946402;29;20030;-75
2020/12/19 10:42:28;;;;;;;14.43;8.52;;;6.00;87.00;;;;;;4946569;29;20020;-75
2020/12/19 10:44:54;;;;;;;17.70;9.35;;;5.80;87.10;;;;;;4929642;29;20054;-74
2020/12/19 10:47:19;;;;;;;17.27;9.40;;;5.90;87.40;;;;;;4928737;29;20054;-75
2020/12/19 10:49:45;;;;;;;21.60;10.00;;;6.00;87.30;;;;;;4946500;29;20200;-74
2020/12/19 10:52:11;;;;;;;18.65;9.88;;;6.00;87.20;;;;;;4946362;29;20238;-75
2020/12/19 10:54:37;;;;;;;23.02;11.43;;;6.00;86.50;;;;;;4946294;29;20020;-75
2020/12/19 10:57:03;;;;;;;17.85;10.00;;;6.00;86.50;;;;;;4946271;29;20351;-75
2020/12/19 10:59:31;;;;;;;23.65;11.38;;;6.00;86.80;;;;;;4945939;29;20191;-75
2020/12/19 11:01:57;;;;;;;17.38;9.90;;;6.00;86.90;;;;;;4946414;29;20043;-75
2020/12/19 11:04:23;;;;;;;20.60;11.40;;;5.90;86.90;;;;;;4946035;29;20023;-75
2020/12/19 11:06:49;;;;;;;18.65;9.65;;;5.90;87.30;;;;;;4945882;29;20027;-75
2020/12/19 11:09:16;;;;;;;17.85;9.35;;;6.00;87.40;;;;;;4945796;29;20341;-75
2020/12/19 11:11:48;;;;;;;16.42;9.00;;;6.00;87.10;;;;;;4953784;29;20019;-75
2020/12/19 11:14:13;;;;;;;17.50;10.15;;;6.10;86.80;;;;;;4964738;29;20031;-75
2020/12/19 11:16:39;;;;;;;22.17;10.10;;;6.20;86.60;;;;;;4961136;29;20153;-75
2020/12/19 11:19:05;;;;;;;17.55;8.90;;;6.10;86.60;;;;;;4959138;29;20090;-75
2020/12/19 11:21:30;;;;;;;13.77;8.90;;;6.10;86.10;;;;;;4963471;29;20026;-75
2020/12/19 11:23:56;;;;;;;16.10;8.27;;;6.10;86.10;;;;;;4954804;29;20023;-74
2020/12/19 11:26:22;;;;;;;17.88;9.60;;;6.10;85.60;;;;;;4964762;29;20307;-75
2020/12/19 11:28:52;;;;;;;14.93;10.07;;;6.10;86.50;;;;;;4961275;29;20067;-74
2020/12/19 11:31:28;;;;;;;16.88;9.60;;;6.20;85.80;;;;;;4947938;29;20034;-74
2020/12/19 11:33:55;;;;;;;17.77;9.23;;;6.10;86.30;;;;;;4948635;29;20016;-74
2020/12/19 11:36:21;;;;;;;13.35;8.63;;;6.20;85.60;;;;;;4939661;29;20333;-74
2020/12/19 11:38:47;;;;;;;13.63;9.48;;;6.10;85.50;;;;;;4960773;29;20019;-75
2020/12/19 11:41:13;;;;;;;14.90;8.20;;;5.90;86.10;;;;;;4964833;29;20030;-74
2020/12/19 11:43:38;;;;;;;15.48;9.90;;;6.00;86.30;;;;;;4936096;29;20180;-74
2020/12/19 11:46:07;;;;;;;17.55;9.75;;;6.10;86.00;;;;;;4952317;29;20323;-74
2020/12/19 11:48:33;;;;;;;17.02;9.70;;;6.10;85.80;;;;;;4949189;29;20042;-75
2020/12/19 11:50:58;;;;;;;16.75;10.30;;;6.20;85.80;;;;;;4933770;29;20024;-75
2020/12/19 11:53:24;;;;;;;18.35;10.70;;;6.30;85.70;;;;;;4955812;29;20019;-74
2020/12/19 11:55:50;;;;;;;17.83;10.73;;;6.30;85.50;;;;;;4932478;29;20039;-75
2020/12/19 11:58:15;;;;;;;20.42;10.70;;;6.20;86.10;;;;;;4948974;29;20023;-74
2020/12/19 12:00:41;;;;;;;16.67;10.00;;;6.20;86.10;;;;;;4932213;29;20064;-75
2020/12/19 12:03:07;;;;;;;20.85;10.60;;;6.20;86.30;;;;;;4958651;29;20019;-75
2020/12/19 12:05:34;;;;;;;21.60;10.98;;;6.40;86.30;;;;;;4951573;29;20086;-74
2020/12/19 12:07:59;;;;;;;20.90;10.55;;;6.40;85.90;;;;;;4959718;29;20026;-75
2020/12/19 12:10:25;;;;;;;23.73;10.93;;;6.40;85.70;;;;;;4938209;29;20031;-75
2020/12/19 12:12:51;;;;;;;23.83;10.93;;;6.40;86.20;;;;;;4953865;29;20019;-75
2020/12/19 12:15:16;;;;;;;22.08;11.40;;;6.50;86.20;;;;;;4949471;29;20056;-75
2020/12/19 12:17:42;;;;;;;22.38;10.35;;;6.50;86.20;;;;;;4949363;29;20023;-75
2020/12/19 12:20:07;;;;;;;27.45;12.55;;;6.60;85.70;;;;;;4949249;29;20027;-75
2020/12/19 12:22:33;;;;;;;31.27;12.27;;;6.60;85.60;;;;;;4948968;29;20083;-74
2020/12/19 12:24:59;;;;;;;28.60;12.27;;;6.60;85.70;;;;;;4931953;29;20020;-74
2020/12/19 12:27:24;;;;;;;31.75;14.00;;;6.40;86.50;;;;;;4941180;29;20141;-74
2020/12/19 12:29:50;;;;;;;27.02;13.40;;;6.40;86.90;;;;;;4948989;29;20090;-75
2020/12/19 12:32:16;;;;;;;23.70;13.20;;;6.30;87.30;;;;;;4952178;29;20090;-74
2020/12/19 12:34:41;;;;;;;33.67;14.35;;;6.40;86.80;;;;;;4967857;29;20218;-75
2020/12/19 12:37:07;;;;;;;30.13;14.15;;;6.30;87.10;;;;;;4965909;29;20053;-75
2020/12/19 12:39:33;;;;;;;31.77;14.93;;;6.20;87.70;;;;;;4931601;29;20276;-74
2020/12/19 12:41:58;;;;;;;34.70;15.02;;;6.30;87.50;;;;;;4948701;29;20307;-74
2020/12/19 12:44:24;;;;;;;27.02;15.05;;;6.30;87.00;;;;;;4948693;29;20082;-74
2020/12/19 12:46:50;;;;;;;27.40;14.82;;;6.30;87.10;;;;;;4952235;29;20043;-74
2020/12/19 12:49:15;;;;;;;30.15;15.52;;;6.30;87.40;;;;;;4966930;29;20023;-74
2020/12/19 12:51:41;;;;;;;28.73;16.08;;;6.30;86.70;;;;;;4950178;29;20507;-74
2020/12/19 12:54:07;;;;;;;26.67;14.07;;;6.10;87.70;;;;;;4932890;29;20034;-74
2020/12/19 12:56:32;;;;;;;29.30;16.15;;;6.10;87.50;;;;;;4947694;29;20034;-74
2020/12/19 12:58:58;;;;;;;25.52;14.60;;;6.20;86.90;;;;;;4945421;29;21534;-74
2020/12/19 13:01:34;;;;;;;25.55;14.77;;;6.30;86.80;;;;;;4945401;29;20040;-73
2020/12/19 13:04:00;;;;;;;31.33;15.18;;;6.30;86.90;;;;;;4943411;29;20234;-74
2020/12/19 13:06:26;;;;;;;32.92;15.27;;;6.30;86.60;;;;;;4947846;29;20140;-74
2020/12/19 13:08:55;;;;;;;36.63;18.20;;;6.30;86.50;;;;;;4956327;29;20067;-74
2020/12/19 13:11:21;;;;;;;39.45;17.23;;;6.30;86.30;;;;;;4953365;29;20070;-74
2020/12/19 13:13:47;;;;;;;49.60;19.85;;;6.10;86.50;;;;;;4959753;29;20047;-74
2020/12/19 13:16:17;;;;;;;53.60;22.20;;;6.30;86.50;;;;;;4958299;29;20087;-74
2020/12/19 13:18:43;;;;;;;38.95;17.95;;;6.30;86.60;;;;;;4947920;29;20027;-74
2020/12/19 13:21:09;;;;;;;39.00;19.88;;;6.10;86.50;;;;;;4966415;29;20375;-74
2020/12/19 13:23:34;;;;;;;39.38;19.33;;;5.90;87.90;;;;;;4949454;29;20044;-74
2020/12/19 13:26:00;;;;;;;37.28;20.00;;;5.80;88.70;;;;;;4949677;29;20033;-75
2020/12/19 13:28:26;;;;;;;37.97;18.67;;;5.90;88.80;;;;;;4963148;29;20329;-74
2020/12/19 13:30:52;;;;;;;36.50;19.45;;;5.70;89.10;;;;;;4949841;29;20031;-74
2020/12/19 13:33:17;;;;;;;38.97;21.80;;;6.00;88.70;;;;;;4940163;29;20106;-74
2020/12/19 13:35:43;;;;;;;48.25;22.67;;;6.20;88.10;;;;;;4957020;29;20131;-74
2020/12/19 13:38:08;;;;;;;34.85;19.95;;;6.30;87.20;;;;;;4957709;29;20035;-74
2020/12/19 13:40:34;;;;;;;40.42;21.98;;;6.50;87.50;;;;;;4929878;29;20067;-74
2020/12/19 13:43:00;;;;;;;46.20;22.85;;;6.50;86.80;;;;;;4959210;29;20315;-74
2020/12/19 13:45:28;;;;;;;38.03;21.05;;;6.50;86.00;;;;;;4956327;29;20016;-73
2020/12/19 13:47:54;;;;;;;35.85;18.98;;;6.60;86.00;;;;;;4935104;29;20374;-74
2020/12/19 13:50:20;;;;;;;37.67;20.05;;;6.60;85.60;;;;;;4932998;29;20024;-74
2020/12/19 13:52:45;;;;;;;35.67;20.73;;;6.60;85.70;;;;;;4956718;29;20070;-74
2020/12/19 13:55:11;;;;;;;29.90;18.52;;;6.60;85.70;;;;;;4937841;29;20020;-74
2020/12/19 13:57:37;;;;;;;38.67;18.48;;;6.60;85.30;;;;;;4952280;29;20090;-75
2020/12/19 14:00:06;;;;;;;28.58;17.45;;;6.70;85.30;;;;;;4960868;29;20071;-74
2020/12/19 14:02:33;;;;;;;34.40;18.80;;;6.60;85.10;;;;;;4955272;29;20031;-74
2020/12/19 14:04:59;;;;;;;34.53;18.02;;;6.50;85.70;;;;;;4956237;29;20030;-75
2020/12/19 14:07:25;;;;;;;31.70;17.55;;;6.30;86.60;;;;;;4936560;29;20054;-74
2020/12/19 14:09:51;;;;;;;38.15;18.35;;;6.30;86.60;;;;;;4955500;29;20207;-74
2020/12/19 14:12:16;;;;;;;30.45;15.90;;;6.30;86.50;;;;;;4936412;29;20023;-74
2020/12/19 14:14:42;;;;;;;36.63;18.95;;;6.40;86.70;;;;;;4950457;29;20031;-74
2020/12/19 14:17:08;;;;;;;36.63;18.65;;;6.30;86.40;;;;;;4949945;29;20054;-74
2020/12/19 14:19:33;;;;;;;36.03;18.38;;;6.40;86.70;;;;;;4946147;29;20074;-74
2020/12/19 14:21:59;;;;;;;35.60;19.23;;;6.40;86.50;;;;;;4947903;29;20094;-74
2020/12/19 14:24:25;;;;;;;30.83;16.83;;;6.30;86.80;;;;;;4957570;29;20135;-74
2020/12/19 14:26:52;;;;;;;31.42;16.17;;;6.30;86.80;;;;;;4943296;29;20026;-74
2020/12/19 14:29:18;;;;;;;;;;;6.20;87.10;;;;;;4965675;29;20043;-74
2020/12/19 14:31:44;;;;;;;34.90;17.60;;;6.30;87.40;;;;;;4965082;29;19910;-74
2020/12/19 14:34:10;;;;;;;29.85;14.77;;;6.40;86.90;;;;;;4957392;29;20202;-74
2020/12/19 14:36:36;;;;;;;30.83;16.83;;;6.30;86.80;;;;;;4960715;29;20028;-74
2020/12/19 14:39:02;;;;;;;29.45;15.93;;;6.50;86.70;;;;;;4956809;29;20043;-74
2020/12/19 14:41:28;;;;;;;27.88;15.57;;;6.60;86.40;;;;;;4947646;29;20019;-74
2020/12/19 14:43:54;;;;;;;25.88;15.48;;;6.40;86.30;;;;;;4965010;29;20122;-74
2020/12/19 14:46:20;;;;;;;27.45;14.70;;;6.30;86.60;;;;;;4957762;29;20044;-74
2020/12/19 14:48:48;;;;;;;29.20;15.43;;;6.50;86.60;;;;;;4957061;29;20019;-74
2020/12/19 14:51:18;;;;;;;28.88;14.88;;;6.60;86.00;;;;;;4938336;29;20029;-74
2020/12/19 14:53:44;;;;;;;30.15;14.98;;;6.60;85.60;;;;;;4945837;29;20031;-74
2020/12/19 14:56:11;;;;;;;28.83;14.88;;;6.60;85.50;;;;;;4958547;29;20070;-74
2020/12/19 14:58:38;;;;;;;27.88;15.85;;;6.60;85.70;;;;;;4954816;29;20135;-74
2020/12/19 15:01:09;;;;;;;29.13;15.50;;;6.70;85.80;;;;;;4938843;29;20027;-74
2020/12/19 15:03:36;;;;;;;42.40;18.92;;;6.70;85.40;;;;;;4952462;29;20015;-74
2020/12/19 15:06:04;;;;;;;;;;;6.60;85.70;;;;;;4955289;29;20026;-74
2020/12/19 15:08:31;;;;;;;65.28;23.23;;;6.50;86.40;;;;;;4952380;29;19938;-75
2020/12/19 15:10:56;;;;;;;46.40;19.43;;;6.40;86.70;;;;;;4954748;29;20082;-75
2020/12/19 15:13:22;;;;;;;35.47;16.65;;;6.40;87.40;;;;;;4952451;29;20276;-74
2020/12/19 15:15:47;;;;;;;26.30;13.43;;;6.50;86.70;;;;;;4936884;29;20027;-74
2020/12/19 15:18:13;;;;;;;29.08;14.57;;;6.60;86.30;;;;;;4936416;28;20025;-74
2020/12/19 15:20:39;;;;;;;30.10;14.88;;;6.40;86.80;;;;;;4935810;29;20117;-74
2020/12/19 15:23:04;;;;;;;32.92;15.50;;;6.50;86.90;;;;;;4950734;29;20012;-75
2020/12/19 15:25:30;;;;;;;27.63;15.25;;;6.60;86.60;;;;;;4952132;29;20135;-74
2020/12/19 15:27:55;;;;;;;26.05;15.43;;;6.60;86.30;;;;;;4951606;29;20035;-74
2020/12/19 15:30:21;;;;;;;26.92;16.30;;;6.70;86.00;;;;;;4935440;29;20793;-75
2020/12/19 15:32:48;;;;;;;50.20;24.02;;;6.60;85.90;;;;;;4930705;29;20023;-74
2020/12/19 15:35:13;;;;;;;40.47;18.65;;;6.70;85.70;;;;;;4946377;29;20177;-74
2020/12/19 15:37:39;;;;;;;40.40;19.85;;;6.70;85.60;;;;;;4934618;29;20030;-74
2020/12/19 15:40:04;;;;;;;34.25;17.50;;;6.70;85.40;;;;;;4932014;29;20062;-74
2020/12/19 15:42:30;;;;;;;27.92;15.00;;;6.70;85.40;;;;;;4952244;29;20024;-73
2020/12/19 15:44:56;;;;;;;35.72;18.00;;;6.60;85.50;;;;;;4955333;29;20015;-74
2020/12/19 15:47:21;;;;;;;40.97;16.17;;;6.60;85.50;;;;;;4931368;29;20107;-74
2020/12/19 15:49:47;;;;;;;34.33;15.57;;;6.60;85.60;;;;;;4927906;29;20031;-74
2020/12/19 15:52:14;;;;;;;34.47;17.25;;;6.60;85.60;;;;;;4932846;29;20292;-74
2020/12/19 15:54:40;;;;;;;35.42;16.98;;;6.70;85.70;;;;;;4935760;29;20250;-74
2020/12/19 15:57:07;;;;;;;33.35;14.77;;;6.70;85.40;;;;;;4933496;29;20027;-74
2020/12/19 15:59:32;;;;;;;35.72;16.85;;;6.50;85.70;;;;;;4931977;29;20047;-74
2020/12/19 16:01:58;;;;;;;30.85;14.82;;;6.60;86.00;;;;;;4930552;29;20027;-74
2020/12/19 16:04:24;;;;;;;29.70;15.05;;;6.60;85.90;;;;;;4929261;29;20543;-74
2020/12/19 16:06:52;;;;;;;27.35;14.43;;;6.60;85.70;;;;;;4930901;29;20104;-76
2020/12/19 16:09:19;;;;;;;26.75;15.20;;;6.30;86.60;;;;;;4927898;29;20019;-74
2020/12/19 16:11:55;;;;;;;33.30;15.60;;;6.30;87.10;;;;;;4927142;29;20399;-74
2020/12/19 16:14:21;;;;;;;32.65;15.57;;;6.50;86.80;;;;;;4936744;29;20026;-74
2020/12/19 16:16:48;;;;;;;26.38;15.40;;;6.40;86.70;;;;;;4942364;29;20024;-74
2020/12/19 16:19:14;;;;;;;34.00;16.57;;;6.40;87.00;;;;;;4925677;29;20036;-74
2020/12/19 16:21:40;;;;;;;34.97;16.00;;;6.50;86.80;;;;;;4935464;29;20267;-74
2020/12/19 16:24:07;;;;;;;28.85;16.10;;;6.40;86.70;;;;;;4937825;29;20039;-74
2020/12/19 16:26:33;;;;;;;33.88;19.20;;;6.30;87.20;;;;;;4933469;29;20024;-74
2020/12/19 16:28:59;;;;;;;41.33;20.00;;;6.60;86.80;;;;;;4933085;29;20228;-74